Etusivu
METAR-TAF:

METAR-TAF

Lentoasemat :

Tšernivtsi, Ukraina

Leveyspiiri: 48-15-36N, Pituuspiiri: 025-58-54E, korkeus merenpinnasta: 252 m

Tämänhetkinen sää

Tämä raportti tehtiin 38 minuuttia sitten, kello 10.00 UTC
Tuuli 14 kn idästä/kaakosta, vaihdellen idän ja etelän/kaakon välillä
Lämpötila 6°C
Kosteus 87%
Ilmanpaine 1014 hPa
Näkyvyys 10 km tai enemmän
Pilvistä 1400 ft:n korkeudessa

METAR: UKLN 041000Z 12007MPS 080V160 9999 OVC014 06/04 Q1014 R15/09//70 TEMPO 14010G15MPS

Aika: 12:38 (10:38 UTC)

Sääennuste

Tämä raportti tehtiin 25 minuuttia sitten, kello 10.13 UTC
Ennuste voimassa 04. päivästä klo 10 UTC - 04. päivään klo 18 UTC
Tuuli 12 kn idästä/kaakosta
Näkyvyys 10 km tai enemmän
Pilvistä 1300 ft:n korkeudessa
Ajoittain
04. päivästä klo 10 UTC - 04. päivään klo 18 UTC
Tuuli 19 kn kaakosta puuskistuen 29 kn:hen
Pilvistä 700 ft:n korkeudessa

TAF: UKLN 041013Z 0410/0418 12006MPS 9999 OVC013 TX07/0412Z TN04/0418Z TEMPO 0410/0418 14010G15MPS OVC007

Säähavainnot ja -ennusteet yli 4000 lentoasemalta (METAR- ja TAF-raportit).

Käytössä olevat sääasemat on merkitty karttaan keltaisilla ja punaisilla pisteillä.

Aseta hiiri pisteen päälle nähdäksesi sääaseman nimen.

Klikkaa sitten nähdäksesi säähavainnot ja -ennusteet.

Kartan vaihtaminen: klikkaa mustalla rastilla varustettuja vihreitä pisteitä, niin voit zoomata sisään; viivalla varustettua vihreää pistettä, niin voit zoomata ulos tai vihreitä nuolia, niin pääset viereisille kartoille.


METAR-TAF: